createdAt,value
2018-01-14T00:00:48.976Z,36.70
2018-01-14T00:01:51.520Z,30.33
2018-01-14T00:02:54.105Z,33.45
2018-01-14T00:03:56.649Z,36.47
2018-01-14T00:04:59.204Z,35.78
2018-01-14T00:06:02.543Z,30.95
2018-01-14T00:07:05.087Z,29.70
2018-01-14T00:08:07.628Z,28.52
2018-01-14T00:09:10.975Z,28.75
2018-01-14T00:10:13.518Z,27.00
2018-01-14T00:11:16.126Z,26.60
2018-01-14T00:12:18.674Z,32.35
2018-01-14T00:13:21.227Z,33.20
2018-01-14T00:14:23.826Z,29.83
2018-01-14T00:15:26.370Z,26.80
2018-01-14T00:16:28.918Z,31.33
2018-01-14T00:17:31.462Z,29.55
2018-01-14T00:18:34.074Z,25.95
2018-01-14T00:19:36.657Z,24.85
2018-01-14T00:20:39.222Z,31.85
2018-01-14T00:21:41.810Z,29.42
2018-01-14T00:22:45.126Z,30.58
2018-01-14T00:23:47.701Z,31.15
2018-01-14T00:24:50.245Z,26.95
2018-01-14T00:25:52.813Z,28.83
2018-01-14T00:26:55.361Z,27.77
2018-01-14T00:27:58.773Z,28.62
2018-01-14T00:29:01.322Z,28.60
2018-01-14T00:30:03.869Z,30.90
2018-01-14T00:31:07.169Z,25.30
2018-01-14T00:32:10.483Z,26.25
2018-01-14T00:33:13.145Z,22.23
2018-01-14T00:34:15.690Z,29.17
2018-01-14T00:35:19.100Z,28.73
2018-01-14T00:36:21.641Z,25.15
2018-01-14T00:37:24.961Z,23.50
2018-01-14T00:38:27.541Z,22.95
2018-01-14T00:39:30.122Z,26.02
2018-01-14T00:40:32.668Z,26.80
2018-01-14T00:41:35.212Z,24.63
2018-01-14T00:42:37.757Z,24.50
2018-01-14T00:43:41.130Z,29.52
2018-01-14T00:44:44.446Z,21.98
2018-01-14T00:45:47.761Z,23.48
2018-01-14T00:46:50.329Z,23.90
2018-01-14T00:47:52.876Z,24.58
2018-01-14T00:48:55.456Z,25.73
2018-01-14T00:49:58.006Z,23.02
2018-01-14T00:51:00.558Z,26.65
2018-01-14T00:52:03.109Z,24.15
2018-01-14T00:53:06.430Z,23.20
2018-01-14T00:54:09.018Z,21.70
2018-01-14T00:55:11.565Z,22.50
2018-01-14T00:56:14.116Z,19.98
2018-01-14T00:57:16.669Z,22.65
2018-01-14T00:58:19.213Z,22.83
2018-01-14T00:59:22.562Z,20.77
2018-01-14T01:00:25.106Z,21.12
2018-01-14T01:01:27.693Z,20.98
2018-01-14T01:02:30.233Z,20.15
2018-01-14T01:03:32.778Z,22.58
2018-01-14T01:04:36.089Z,23.35
2018-01-14T01:05:38.630Z,22.55
2018-01-14T01:06:41.972Z,18.42
2018-01-14T01:07:44.517Z,22.37
2018-01-14T01:08:47.062Z,19.37
2018-01-14T01:09:49.637Z,22.17
2018-01-14T01:10:52.185Z,23.60
2018-01-14T01:11:54.793Z,23.58
2018-01-14T01:12:57.334Z,20.52
2018-01-14T01:13:59.882Z,24.05
2018-01-14T01:15:03.196Z,27.92
2018-01-14T01:16:05.757Z,23.25
2018-01-14T01:17:08.333Z,20.50
2018-01-14T01:18:10.908Z,25.05
2018-01-14T01:19:13.458Z,20.25
2018-01-14T01:20:16.002Z,19.27
2018-01-14T01:21:18.558Z,19.55
2018-01-14T01:22:21.954Z,20.95
2018-01-14T01:23:24.515Z,31.15
2018-01-14T01:24:27.080Z,45.22
2018-01-14T01:25:29.623Z,28.70
2018-01-14T01:26:32.170Z,22.08
2018-01-14T01:27:34.746Z,23.55
2018-01-14T01:28:37.444Z,20.33
2018-01-14T01:29:40.785Z,19.40
2018-01-14T01:30:43.433Z,20.55
2018-01-14T01:31:45.984Z,22.95
2018-01-14T01:32:48.526Z,23.10
2018-01-14T01:33:51.878Z,23.65
2018-01-14T01:34:54.421Z,21.62
2018-01-14T01:35:56.967Z,26.62
2018-01-14T01:36:59.515Z,22.80
2018-01-14T01:38:02.825Z,25.15
2018-01-14T01:39:05.431Z,20.90
2018-01-14T01:40:07.982Z,22.25
2018-01-14T01:41:10.538Z,22.60
2018-01-14T01:42:13.086Z,21.95
2018-01-14T01:43:15.662Z,21.75
2018-01-14T01:44:18.294Z,22.15
2018-01-14T01:45:20.814Z,21.55
2018-01-14T01:46:23.359Z,19.77
2018-01-14T01:47:25.909Z,23.12
2018-01-14T01:48:29.225Z,25.20
2018-01-14T01:49:31.801Z,19.65
2018-01-14T01:50:34.377Z,22.00
2018-01-14T01:51:36.927Z,21.73
2018-01-14T01:52:39.474Z,25.90
2018-01-14T01:53:42.022Z,20.50
2018-01-14T01:54:45.333Z,22.55
2018-01-14T01:55:47.915Z,22.05
2018-01-14T01:56:50.458Z,20.02
2018-01-14T01:57:52.997Z,21.00
2018-01-14T01:58:56.312Z,21.80
2018-01-14T01:59:58.862Z,20.42
2018-01-14T02:01:01.446Z,24.52
2018-01-14T02:02:04.022Z,24.33
2018-01-14T02:03:06.565Z,22.20
2018-01-14T02:04:09.114Z,21.35
2018-01-14T02:05:12.436Z,23.50
2018-01-14T02:06:15.100Z,23.15
2018-01-14T02:07:17.649Z,21.55
2018-01-14T02:08:20.211Z,25.20
2018-01-14T02:09:23.521Z,22.10
2018-01-14T02:10:26.066Z,22.77
2018-01-14T02:11:28.641Z,21.83
2018-01-14T02:12:31.230Z,24.60
2018-01-14T02:13:33.778Z,20.70
2018-01-14T02:14:36.326Z,21.73
2018-01-14T02:15:39.645Z,24.45
2018-01-14T02:16:42.189Z,20.08
2018-01-14T02:17:44.785Z,22.27
2018-01-14T02:18:48.137Z,22.52
2018-01-14T02:19:50.701Z,25.25
2018-01-14T02:20:54.009Z,23.48
2018-01-14T02:21:56.549Z,24.05
2018-01-14T02:22:59.874Z,26.80
2018-01-14T02:24:02.445Z,21.75
2018-01-14T02:25:05.046Z,25.55
2018-01-14T02:26:07.597Z,24.45
2018-01-14T02:27:10.142Z,21.80
2018-01-14T02:28:13.457Z,22.62
2018-01-14T02:29:16.006Z,23.85
2018-01-14T02:30:18.595Z,23.60
2018-01-14T02:31:21.138Z,20.33
2018-01-14T02:32:23.686Z,22.13
2018-01-14T02:33:26.265Z,26.23
2018-01-14T02:34:28.813Z,22.42
2018-01-14T02:35:31.391Z,21.55
2018-01-14T02:36:33.938Z,24.75
2018-01-14T02:37:36.486Z,24.98
2018-01-14T02:38:39.041Z,23.77
2018-01-14T02:39:41.592Z,26.00
2018-01-14T02:40:44.206Z,21.67
2018-01-14T02:41:46.756Z,24.23
2018-01-14T02:42:49.349Z,22.10
2018-01-14T02:43:51.902Z,23.77
2018-01-14T02:44:54.445Z,24.08
2018-01-14T02:45:57.789Z,24.42
2018-01-14T02:47:00.333Z,24.20
2018-01-14T02:48:02.890Z,23.83
2018-01-14T02:49:05.442Z,23.83
2018-01-14T02:50:07.993Z,22.45
2018-01-14T02:51:11.334Z,25.20
2018-01-14T02:52:13.886Z,21.95
2018-01-14T02:53:16.433Z,24.52
2018-01-14T02:54:19.023Z,22.60
2018-01-14T02:55:21.570Z,22.30
2018-01-14T02:56:24.152Z,23.27
2018-01-14T02:57:26.752Z,19.83
2018-01-14T02:58:29.301Z,19.85
2018-01-14T02:59:31.846Z,25.92
2018-01-14T03:00:34.385Z,21.33
2018-01-14T03:01:37.693Z,20.37
2018-01-14T03:02:40.301Z,21.35
2018-01-14T03:03:42.845Z,20.27
2018-01-14T03:04:45.630Z,20.55
2018-01-14T03:05:48.190Z,17.42
2018-01-14T03:06:50.746Z,24.15
2018-01-14T03:07:53.317Z,24.85
2018-01-14T03:08:55.863Z,23.42
2018-01-14T03:09:58.458Z,24.92
2018-01-14T03:11:01.010Z,22.17
2018-01-14T03:12:03.554Z,20.48
2018-01-14T03:13:06.104Z,25.83
2018-01-14T03:14:09.413Z,24.80
2018-01-14T03:15:11.997Z,18.75
2018-01-14T03:16:14.549Z,16.48
2018-01-14T03:17:17.093Z,19.67
2018-01-14T03:18:20.402Z,20.62
2018-01-14T03:19:22.965Z,21.45
2018-01-14T03:20:25.582Z,20.45
2018-01-14T03:21:28.129Z,20.70
2018-01-14T03:22:30.669Z,20.08
2018-01-14T03:23:33.210Z,19.12
2018-01-14T03:24:36.516Z,21.33
2018-01-14T03:25:39.089Z,24.40
2018-01-14T03:26:41.629Z,20.02
2018-01-14T03:27:44.984Z,20.25
2018-01-14T03:28:47.533Z,17.35
2018-01-14T03:29:50.077Z,19.23
2018-01-14T03:30:52.624Z,21.42
2018-01-14T03:31:55.172Z,19.02
2018-01-14T03:32:58.513Z,19.30
2018-01-14T03:34:01.053Z,19.08
2018-01-14T03:35:03.597Z,18.45
2018-01-14T03:36:06.910Z,20.25
2018-01-14T03:37:09.570Z,19.95
2018-01-14T03:38:12.109Z,13.25
2018-01-14T03:39:15.450Z,19.10
2018-01-14T03:40:18.001Z,16.02
2018-01-14T03:41:20.544Z,22.37
2018-01-14T03:42:23.122Z,20.42
2018-01-14T03:43:25.665Z,17.45
2018-01-14T03:44:28.978Z,18.02
2018-01-14T03:45:31.525Z,21.55
2018-01-14T03:46:34.077Z,18.30
2018-01-14T03:47:37.430Z,19.33
2018-01-14T03:48:39.978Z,18.87
2018-01-14T03:49:42.521Z,22.42
2018-01-14T03:50:45.062Z,17.33
2018-01-14T03:51:47.618Z,17.35
2018-01-14T03:52:50.457Z,19.85
2018-01-14T03:53:53.097Z,16.33
2018-01-14T03:54:55.643Z,12.45
2018-01-14T03:55:58.949Z,17.95
2018-01-14T03:57:01.493Z,17.40
2018-01-14T03:58:04.833Z,17.23
2018-01-14T03:59:07.418Z,17.65
2018-01-14T04:00:10.001Z,22.20
2018-01-14T04:01:13.315Z,14.20
2018-01-14T04:02:15.858Z,15.65
2018-01-14T04:03:19.166Z,16.20
2018-01-14T04:04:21.709Z,14.98
2018-01-14T04:05:25.052Z,14.57
2018-01-14T04:06:27.687Z,14.43
2018-01-14T04:07:30.238Z,13.57
2018-01-14T04:08:32.783Z,14.18
2018-01-14T04:09:36.216Z,17.08
2018-01-14T04:10:38.753Z,11.25
2018-01-14T04:11:42.057Z,14.20
2018-01-14T04:12:44.601Z,12.75
2018-01-14T04:13:47.905Z,16.20
2018-01-14T04:14:50.482Z,15.55
2018-01-14T04:15:53.789Z,12.52
2018-01-14T04:16:56.365Z,13.85
2018-01-14T04:17:58.912Z,15.45
2018-01-14T04:19:01.472Z,13.02
2018-01-14T04:20:04.054Z,15.50
2018-01-14T04:21:06.597Z,14.68
2018-01-14T04:22:09.141Z,14.68
2018-01-14T04:23:11.685Z,16.05
2018-01-14T04:24:15.110Z,13.02
2018-01-14T04:25:17.649Z,14.52
2018-01-14T04:26:20.962Z,13.95
2018-01-14T04:27:23.501Z,14.38
2018-01-14T04:28:26.854Z,15.63
2018-01-14T04:29:29.417Z,13.70
2018-01-14T04:30:32.047Z,15.40
2018-01-14T04:31:34.642Z,11.00
2018-01-14T04:32:37.977Z,20.33
2018-01-14T04:33:41.282Z,12.77
2018-01-14T04:34:43.825Z,13.00
2018-01-14T04:35:47.201Z,14.60
2018-01-14T04:36:50.510Z,13.88
2018-01-14T04:37:53.050Z,15.02
2018-01-14T04:38:56.362Z,17.37
2018-01-14T04:39:58.901Z,12.20
2018-01-14T04:41:02.250Z,15.88
2018-01-14T04:42:04.826Z,13.32
2018-01-14T04:43:07.376Z,14.05
2018-01-14T04:44:09.917Z,12.95
2018-01-14T04:45:12.462Z,12.82
2018-01-14T04:46:15.806Z,12.45
2018-01-14T04:47:18.349Z,11.85
2018-01-14T04:48:20.890Z,13.00
2018-01-14T04:49:23.433Z,11.95
2018-01-14T04:50:26.745Z,14.80
2018-01-14T04:51:29.333Z,16.58
2018-01-14T04:52:31.877Z,11.85
2018-01-14T04:53:34.422Z,13.70
2018-01-14T04:54:37.734Z,15.75
2018-01-14T04:55:40.280Z,14.40
2018-01-14T04:56:43.630Z,14.27
2018-01-14T04:57:46.170Z,14.45
2018-01-14T04:58:48.730Z,11.05
2018-01-14T04:59:51.269Z,11.38
2018-01-14T05:00:54.572Z,12.37
2018-01-14T05:01:57.150Z,12.37
2018-01-14T05:02:59.685Z,11.98
2018-01-14T05:04:02.994Z,13.73
2018-01-14T05:05:05.542Z,14.38
2018-01-14T05:06:08.086Z,14.15
2018-01-14T05:07:11.433Z,15.05
2018-01-14T05:08:13.974Z,11.20
2018-01-14T05:09:16.514Z,12.15
2018-01-14T05:10:19.825Z,14.40
2018-01-14T05:11:22.366Z,12.88
2018-01-14T05:12:25.710Z,11.82
2018-01-14T05:13:28.254Z,11.57
2018-01-14T05:14:30.829Z,16.60
2018-01-14T05:15:33.369Z,15.43
2018-01-14T05:16:35.909Z,10.88
2018-01-14T05:17:39.254Z,12.43
2018-01-14T05:18:41.805Z,14.23
2018-01-14T05:19:44.345Z,11.23
2018-01-14T05:20:46.895Z,17.10
2018-01-14T05:21:50.206Z,11.75
2018-01-14T05:22:52.782Z,10.65
2018-01-14T05:23:55.317Z,13.93
2018-01-14T05:24:58.653Z,13.30
2018-01-14T05:26:01.304Z,13.20
2018-01-14T05:27:03.859Z,17.02
2018-01-14T05:28:06.413Z,12.98
2018-01-14T05:29:08.998Z,13.23
2018-01-14T05:30:11.537Z,11.35
2018-01-14T05:31:14.842Z,13.32
2018-01-14T05:32:17.381Z,13.65
2018-01-14T05:33:20.686Z,12.27
2018-01-14T05:34:23.261Z,10.95
2018-01-14T05:35:25.802Z,15.27
2018-01-14T05:36:29.102Z,14.15
2018-01-14T05:37:31.642Z,13.65
2018-01-14T05:38:34.948Z,11.55
2018-01-14T05:39:37.526Z,12.45
2018-01-14T05:40:40.070Z,10.73
2018-01-14T05:41:43.381Z,11.15
2018-01-14T05:42:45.920Z,12.27
2018-01-14T05:43:49.226Z,17.23
2018-01-14T05:44:51.806Z,11.70
2018-01-14T05:45:54.345Z,13.13
2018-01-14T05:46:57.649Z,10.10
2018-01-14T05:48:00.191Z,12.35
2018-01-14T05:49:03.599Z,11.93
2018-01-14T05:50:06.194Z,12.02
2018-01-14T05:51:08.738Z,11.30
2018-01-14T05:52:11.285Z,12.68
2018-01-14T05:53:13.866Z,13.02
2018-01-14T05:54:16.407Z,13.07
2018-01-14T05:55:19.749Z,11.85
2018-01-14T05:56:22.298Z,14.30
2018-01-14T05:57:24.841Z,15.88
2018-01-14T05:58:27.381Z,12.55
2018-01-14T05:59:30.692Z,13.52
2018-01-14T06:00:33.265Z,13.70
2018-01-14T06:01:35.837Z,10.30
2018-01-14T06:02:38.379Z,13.52
2018-01-14T06:03:41.684Z,12.48
2018-01-14T06:04:44.221Z,12.18
2018-01-14T06:05:47.531Z,10.93
2018-01-14T06:06:50.109Z,11.55
2018-01-14T06:07:52.657Z,12.37
2018-01-14T06:08:55.201Z,11.23
2018-01-14T06:09:58.510Z,11.98
2018-01-14T06:11:01.054Z,13.45
2018-01-14T06:12:04.401Z,13.48
2018-01-14T06:13:06.940Z,14.60
2018-01-14T06:14:09.481Z,14.25
2018-01-14T06:15:12.034Z,15.52
2018-01-14T06:16:15.457Z,16.35
2018-01-14T06:17:17.997Z,17.60
2018-01-14T06:18:21.408Z,21.37
2018-01-14T06:19:23.950Z,16.98
2018-01-14T06:20:27.257Z,19.20
2018-01-14T06:21:29.838Z,21.60
2018-01-14T06:22:32.377Z,17.55
2018-01-14T06:23:34.925Z,21.25
2018-01-14T06:24:37.498Z,22.15
2018-01-14T06:25:40.800Z,20.95
2018-01-14T06:26:43.345Z,21.15
2018-01-14T06:27:46.658Z,19.85
2018-01-14T06:28:49.256Z,20.55
2018-01-14T06:29:51.797Z,23.70
2018-01-14T06:30:54.461Z,22.77
2018-01-14T06:31:57.001Z,25.65
2018-01-14T06:33:00.317Z,21.30
2018-01-14T06:34:02.925Z,24.33
2018-01-14T06:35:05.469Z,19.70
2018-01-14T06:36:08.019Z,22.90
2018-01-14T06:37:10.684Z,23.10
2018-01-14T06:38:13.248Z,25.08
2018-01-14T06:39:15.796Z,22.92
2018-01-14T06:40:19.109Z,22.15
2018-01-14T06:41:21.666Z,23.38
2018-01-14T06:42:24.281Z,21.50
2018-01-14T06:43:26.858Z,27.67
2018-01-14T06:44:29.410Z,25.45
2018-01-14T06:45:32.036Z,23.08
2018-01-14T06:46:34.581Z,20.10
2018-01-14T06:47:37.890Z,25.40
2018-01-14T06:48:40.470Z,23.20
2018-01-14T06:49:43.122Z,22.20
2018-01-14T06:50:45.666Z,24.77
2018-01-14T06:51:49.005Z,28.98
2018-01-14T06:52:51.546Z,22.60
2018-01-14T06:53:54.089Z,24.85
2018-01-14T06:54:56.674Z,20.55
2018-01-14T06:55:59.267Z,24.27
2018-01-14T06:57:01.809Z,27.52
2018-01-14T06:58:04.350Z,26.77
2018-01-14T06:59:07.682Z,26.02
2018-01-14T07:00:10.261Z,24.55
2018-01-14T07:01:12.830Z,22.80
2018-01-14T07:02:15.377Z,27.52
2018-01-14T07:03:17.930Z,23.17
2018-01-14T07:04:20.469Z,25.35
2018-01-14T07:05:23.818Z,24.67
2018-01-14T07:06:26.445Z,27.77
2018-01-14T07:07:29.025Z,27.08
2018-01-14T07:08:31.572Z,24.10
2018-01-14T07:09:34.145Z,26.10
2018-01-14T07:10:36.699Z,24.20
2018-01-14T07:11:39.244Z,25.45
2018-01-14T07:12:42.562Z,26.80
2018-01-14T07:13:45.223Z,23.30
2018-01-14T07:14:47.764Z,24.42
2018-01-14T07:15:51.069Z,28.67
2018-01-14T07:16:53.614Z,24.95
2018-01-14T07:17:56.926Z,27.08
2018-01-14T07:18:59.502Z,31.77
2018-01-14T07:20:02.813Z,24.50
2018-01-14T07:21:05.363Z,32.78
2018-01-14T07:22:07.952Z,28.02
2018-01-14T07:23:10.501Z,28.38
2018-01-14T07:24:13.151Z,26.95
2018-01-14T07:25:15.698Z,30.92
2018-01-14T07:26:18.245Z,28.55
2018-01-14T07:27:21.608Z,29.10
2018-01-14T07:28:24.153Z,27.80
2018-01-14T07:29:26.698Z,25.33
2018-01-14T07:30:29.242Z,29.85
2018-01-14T07:31:32.558Z,25.67
2018-01-14T07:32:35.137Z,29.40
2018-01-14T07:33:37.677Z,25.88
2018-01-14T07:34:40.222Z,28.08
2018-01-14T07:35:43.564Z,29.45
2018-01-14T07:36:46.153Z,29.95
2018-01-14T07:37:48.693Z,32.70
2018-01-14T07:38:51.342Z,29.00
2018-01-14T07:39:54.653Z,25.40
2018-01-14T07:40:57.242Z,31.05
2018-01-14T07:41:59.826Z,31.85
2018-01-14T07:43:03.169Z,29.37
2018-01-14T07:44:05.713Z,28.02
2018-01-14T07:45:08.262Z,30.42
2018-01-14T07:46:10.838Z,25.98
2018-01-14T07:47:13.386Z,31.55
2018-01-14T07:48:16.710Z,31.40
2018-01-14T07:49:19.289Z,29.20
2018-01-14T07:50:21.833Z,31.27
2018-01-14T07:51:24.405Z,32.08
2018-01-14T07:52:26.951Z,30.67
2018-01-14T07:53:29.502Z,29.00
2018-01-14T07:54:32.841Z,30.08
2018-01-14T07:55:35.382Z,29.50
2018-01-14T07:56:37.927Z,31.92
2018-01-14T07:57:40.473Z,31.50
2018-01-14T07:58:43.788Z,29.52
2018-01-14T07:59:46.365Z,30.40
2018-01-14T08:00:48.910Z,32.13
2018-01-14T08:01:51.457Z,33.38
2018-01-14T08:02:54.770Z,33.20
2018-01-14T08:03:57.350Z,34.92
2018-01-14T08:04:59.908Z,26.92
2018-01-14T08:06:02.605Z,33.47
2018-01-14T08:07:05.147Z,28.38
2018-01-14T08:08:07.761Z,31.55
2018-01-14T08:09:10.330Z,32.78
2018-01-14T08:10:12.873Z,33.85
2018-01-14T08:11:15.465Z,33.22
2018-01-14T08:12:18.006Z,27.35
2018-01-14T08:13:20.550Z,28.35
2018-01-14T08:14:23.102Z,30.23
2018-01-14T08:15:25.650Z,31.58
2018-01-14T08:16:29.065Z,29.75
2018-01-14T08:17:31.610Z,32.33
2018-01-14T08:18:34.926Z,30.65
2018-01-14T08:19:37.502Z,30.83
2018-01-14T08:20:40.043Z,34.33
2018-01-14T08:21:42.618Z,30.75
2018-01-14T08:22:45.929Z,32.83
2018-01-14T08:23:48.470Z,35.28
2018-01-14T08:24:51.058Z,36.45
2018-01-14T08:25:53.606Z,35.92
2018-01-14T08:26:56.152Z,33.55
2018-01-14T08:27:58.702Z,29.27
2018-01-14T08:29:02.012Z,32.95
2018-01-14T08:30:04.597Z,34.88
2018-01-14T08:31:07.138Z,31.70
2018-01-14T08:32:09.693Z,37.30
2018-01-14T08:33:13.014Z,37.67
2018-01-14T08:34:15.555Z,33.63
2018-01-14T08:35:18.236Z,30.40
2018-01-14T08:36:20.778Z,31.92
2018-01-14T08:37:24.091Z,31.65
2018-01-14T08:38:26.634Z,30.27
2018-01-14T08:39:29.941Z,34.88
2018-01-14T08:40:32.525Z,30.73
2018-01-14T08:41:35.076Z,29.95
2018-01-14T08:42:38.425Z,29.25
2018-01-14T08:43:41.734Z,35.78
2018-01-14T08:44:44.278Z,29.12
2018-01-14T08:45:47.589Z,33.65
2018-01-14T08:46:50.136Z,36.97
2018-01-14T08:47:52.723Z,31.20
2018-01-14T08:48:55.273Z,34.45
2018-01-14T08:49:57.835Z,33.70
2018-01-14T08:51:01.148Z,27.48
2018-01-14T08:52:03.690Z,32.85
2018-01-14T08:53:06.325Z,29.10
2018-01-14T08:54:08.875Z,27.10
2018-01-14T08:55:11.422Z,34.85
2018-01-14T08:56:14.004Z,32.13
2018-01-14T08:57:16.553Z,32.22
2018-01-14T08:58:19.093Z,34.22
2018-01-14T08:59:21.641Z,35.97
2018-01-14T09:00:24.950Z,35.00
2018-01-14T09:01:33.254Z,31.60
2018-01-14T09:02:35.803Z,30.42
2018-01-14T09:03:39.116Z,30.08
2018-01-14T09:04:41.690Z,34.58
2018-01-14T09:05:44.234Z,32.70
2018-01-14T09:06:46.781Z,34.92
2018-01-14T09:07:50.130Z,30.58
2018-01-14T09:08:52.674Z,28.83
2018-01-14T09:09:55.219Z,30.75
2018-01-14T09:10:57.768Z,30.77
2018-01-14T09:12:01.114Z,31.85
2018-01-14T09:14:12.526Z,27.90
2018-01-14T09:15:15.834Z,32.88
2018-01-14T09:16:18.410Z,34.92
2018-01-14T09:17:20.954Z,34.03
2018-01-14T09:18:24.266Z,31.33
2018-01-14T09:19:26.844Z,30.37
2018-01-14T09:20:29.389Z,30.77
2018-01-14T09:21:31.968Z,34.13
2018-01-14T09:22:34.509Z,31.98
2018-01-14T09:23:37.818Z,33.70
2018-01-14T09:24:40.368Z,40.03
2018-01-14T09:25:42.942Z,29.55
2018-01-14T09:26:45.480Z,28.62
2018-01-14T09:27:48.965Z,34.88
2018-01-14T09:28:52.274Z,30.20
2018-01-14T09:29:54.824Z,31.77
2018-01-14T09:31:03.411Z,31.60
2018-01-14T09:32:05.953Z,30.62
2018-01-14T09:33:08.497Z,31.87
2018-01-14T09:34:11.037Z,30.27
2018-01-14T09:35:13.590Z,30.00
2018-01-14T09:36:16.935Z,32.05
2018-01-14T09:37:19.485Z,30.83
2018-01-14T09:38:22.026Z,31.12
2018-01-14T09:39:24.606Z,30.17
2018-01-14T09:40:27.155Z,34.40
2018-01-14T09:41:29.753Z,34.42
2018-01-14T09:42:32.307Z,27.92
2018-01-14T09:43:34.849Z,33.30
2018-01-14T09:44:38.162Z,33.88
2018-01-14T09:45:40.725Z,39.85
2018-01-14T09:46:43.307Z,31.60
2018-01-14T09:47:45.859Z,31.37
2018-01-14T09:48:48.401Z,36.08
2018-01-14T09:49:51.729Z,29.83
2018-01-14T09:50:54.323Z,33.78
2018-01-14T09:51:56.872Z,30.70
2018-01-14T09:52:59.419Z,31.85
2018-01-14T09:54:02.443Z,32.00
2018-01-14T09:55:04.989Z,33.60
2018-01-14T09:56:07.577Z,27.15
2018-01-14T09:57:10.122Z,30.73
2018-01-14T09:58:12.710Z,31.08
2018-01-14T09:59:15.294Z,31.35
2018-01-14T10:00:17.837Z,32.58
2018-01-14T10:01:20.377Z,31.25
2018-01-14T10:02:22.918Z,30.60
2018-01-14T10:03:25.492Z,32.00
2018-01-14T10:04:28.042Z,28.38
2018-01-14T10:05:31.394Z,29.10
2018-01-14T10:06:33.939Z,32.70
2018-01-14T10:07:36.506Z,29.17
2018-01-14T10:08:39.048Z,28.45
2018-01-14T10:09:41.634Z,31.50
2018-01-14T10:10:44.177Z,30.15
2018-01-14T10:11:46.721Z,31.65
2018-01-14T10:12:49.274Z,31.33
2018-01-14T10:13:52.586Z,43.10
2018-01-14T10:14:55.162Z,30.25
2018-01-14T10:15:57.702Z,34.53
2018-01-14T10:17:01.011Z,32.20
2018-01-14T10:18:03.553Z,34.85
2018-01-14T10:19:06.877Z,33.42
2018-01-14T10:20:09.610Z,36.50
2018-01-14T10:21:12.190Z,37.45
2018-01-14T10:22:14.770Z,36.08
2018-01-14T10:23:17.318Z,37.72
2018-01-14T10:24:19.859Z,38.42
2018-01-14T10:25:23.212Z,33.28
2018-01-14T10:26:25.761Z,37.55
2018-01-14T10:27:28.306Z,34.97
2018-01-14T10:28:30.878Z,35.10
2018-01-14T10:29:33.425Z,34.72
2018-01-14T10:30:36.781Z,32.15
2018-01-14T10:31:39.320Z,40.45
2018-01-14T10:32:41.865Z,38.13
2018-01-14T10:33:44.413Z,44.45
2018-01-14T10:34:47.809Z,36.13
2018-01-14T10:35:50.436Z,35.22
2018-01-14T10:36:52.994Z,35.28
2018-01-14T10:37:55.538Z,36.78
2018-01-14T10:38:58.173Z,36.00
2018-01-14T10:40:00.722Z,37.95
2018-01-14T10:41:04.031Z,33.45
2018-01-14T10:42:06.713Z,36.92
2018-01-14T10:43:09.275Z,37.30
2018-01-14T10:44:11.865Z,33.83
2018-01-14T10:45:14.414Z,35.92
2018-01-14T10:46:17.041Z,33.20
2018-01-14T10:47:20.384Z,33.72
2018-01-14T10:48:22.930Z,33.17
2018-01-14T10:49:25.537Z,33.78
2018-01-14T10:50:28.081Z,30.55
2018-01-14T10:51:31.406Z,33.38
2018-01-14T10:52:34.717Z,35.15
2018-01-14T10:53:37.260Z,32.55
2018-01-14T10:54:40.601Z,33.30
2018-01-14T10:55:43.144Z,33.97
2018-01-14T10:56:45.693Z,34.58
2018-01-14T10:57:48.241Z,33.83
2018-01-14T10:58:51.558Z,33.60
2018-01-14T10:59:54.126Z,30.00
2018-01-14T11:00:58.612Z,33.92
2018-01-14T11:02:01.296Z,32.42
2018-01-14T11:03:03.845Z,33.20
2018-01-14T11:04:07.186Z,31.42
2018-01-14T11:05:09.765Z,31.55
2018-01-14T11:06:12.421Z,33.47
2018-01-14T11:07:14.993Z,34.63
2018-01-14T11:08:17.545Z,32.05
2018-01-14T11:09:20.089Z,30.45
2018-01-14T11:10:22.682Z,32.90
2018-01-14T11:11:25.226Z,31.90
2018-01-14T11:12:27.773Z,32.22
2018-01-14T11:13:31.086Z,32.30
2018-01-14T11:14:33.632Z,29.77
2018-01-14T11:15:36.321Z,34.13
2018-01-14T11:16:38.862Z,36.17
2018-01-14T11:17:42.173Z,34.85
2018-01-14T11:18:44.734Z,31.80
2018-01-14T11:19:47.317Z,34.40
2018-01-14T11:20:49.878Z,37.65
2018-01-14T11:21:52.423Z,29.42
2018-01-14T11:22:54.967Z,30.60
2018-01-14T11:23:57.587Z,36.75
2018-01-14T11:25:00.106Z,33.60
2018-01-14T11:26:03.445Z,30.75
2018-01-14T11:27:05.994Z,36.53
2018-01-14T11:28:08.553Z,30.10
2018-01-14T11:30:41.854Z,30.33
2018-01-14T11:31:44.427Z,29.33
2018-01-14T11:32:46.946Z,36.47
2018-01-14T11:33:50.229Z,32.55
2018-01-14T11:34:53.511Z,31.00
2018-01-14T11:35:56.027Z,30.88
2018-01-14T11:36:58.576Z,34.08
2018-01-14T11:38:01.099Z,28.70
2018-01-14T11:39:03.613Z,33.75
2018-01-14T11:40:06.143Z,29.30
2018-01-14T11:41:09.441Z,30.88
2018-01-14T11:42:12.777Z,30.85
2018-01-14T11:43:15.434Z,29.80
2018-01-14T11:44:17.978Z,28.90
2018-01-14T11:45:20.500Z,30.67
2018-01-14T11:46:23.050Z,31.87
2018-01-14T11:47:25.564Z,31.02
2018-01-14T11:48:28.072Z,36.85
2018-01-14T11:49:30.622Z,29.83
2018-01-14T11:50:33.173Z,33.28
2018-01-14T11:51:35.716Z,27.60
2018-01-14T11:52:39.022Z,28.12
2018-01-14T11:53:41.550Z,30.55
2018-01-14T11:54:44.070Z,30.27
2018-01-14T11:55:46.725Z,33.20
2018-01-14T11:56:49.238Z,30.67
2018-01-14T11:57:51.764Z,28.70
2018-01-14T11:58:54.290Z,29.35
2018-01-14T11:59:57.573Z,29.85
2018-01-14T12:01:00.890Z,31.83
2018-01-14T12:02:03.457Z,26.98
2018-01-14T12:03:05.980Z,28.27
2018-01-14T12:04:08.511Z,29.05
2018-01-14T12:05:11.037Z,28.60
2018-01-14T12:06:14.489Z,35.22
2018-01-14T12:07:17.109Z,28.48
2018-01-14T12:08:19.629Z,35.67
2018-01-14T12:09:22.144Z,30.35
2018-01-14T12:10:24.674Z,33.47
2018-01-14T12:11:27.994Z,31.23
2018-01-14T12:12:30.572Z,33.47
2018-01-14T12:13:33.851Z,34.17
2018-01-14T12:14:36.371Z,30.50
2018-01-14T12:15:38.890Z,36.33
2018-01-14T12:16:41.402Z,30.58
2018-01-14T12:17:43.951Z,32.40
2018-01-14T12:18:46.504Z,29.52
2018-01-14T12:19:49.785Z,39.00
2018-01-14T12:20:52.300Z,30.17
2018-01-14T12:21:55.592Z,37.95
2018-01-14T12:22:58.109Z,35.58
2018-01-14T12:24:00.682Z,32.45
2018-01-14T12:25:03.193Z,33.08
2018-01-14T12:26:05.711Z,35.15
2018-01-14T12:27:08.233Z,40.58
2018-01-14T12:28:10.766Z,33.78
2018-01-14T12:29:14.088Z,33.42
2018-01-14T12:30:16.601Z,37.15
2018-01-14T12:31:19.170Z,37.40
2018-01-14T12:32:22.474Z,35.67
2018-01-14T12:33:41.548Z,36.42
2018-01-14T12:34:44.106Z,36.10
2018-01-14T12:35:46.628Z,37.70
2018-01-14T12:36:49.141Z,36.50
2018-01-14T12:37:51.656Z,30.15
2018-01-14T12:38:54.223Z,36.13
2018-01-14T12:39:56.738Z,38.25
2018-01-14T12:40:59.264Z,33.65
2018-01-14T12:42:01.824Z,41.13
2018-01-14T12:43:04.336Z,31.02
2018-01-14T12:44:06.846Z,38.80
2018-01-14T12:45:09.355Z,35.80
2018-01-14T12:46:12.647Z,37.28
2018-01-14T12:47:15.969Z,37.25
2018-01-14T12:48:18.487Z,36.55
2018-01-14T12:49:21.778Z,32.10
2018-01-14T12:50:25.057Z,34.88
2018-01-14T12:51:28.342Z,39.13
2018-01-14T12:52:31.676Z,40.78
2018-01-14T12:53:34.188Z,42.35
2018-01-14T12:54:37.469Z,37.30
2018-01-14T12:55:40.755Z,35.25
2018-01-14T12:56:44.042Z,32.33
2018-01-14T12:57:47.460Z,42.95
2018-01-14T12:58:49.988Z,37.20
2018-01-14T12:59:53.272Z,40.53
2018-01-14T13:00:56.564Z,38.42
2018-01-14T13:01:59.841Z,37.22
2018-01-14T13:03:03.157Z,34.95
2018-01-14T13:04:05.670Z,36.08
2018-01-14T13:05:08.226Z,39.20
2018-01-14T13:06:10.754Z,38.47
2018-01-14T13:07:13.273Z,38.55
2018-01-14T13:08:15.968Z,35.63
2018-01-14T13:09:19.253Z,36.03
2018-01-14T13:10:21.789Z,38.72
2018-01-14T13:11:24.304Z,39.83
2018-01-14T13:12:26.814Z,38.42
2018-01-14T13:13:29.348Z,37.45
2018-01-14T13:14:31.868Z,36.33
2018-01-14T13:15:35.148Z,40.38
2018-01-14T13:16:38.441Z,35.03
2018-01-14T13:17:41.717Z,37.47
2018-01-14T13:18:45.033Z,41.50
2018-01-14T13:19:47.552Z,33.88
2018-01-14T13:20:50.065Z,31.80
2018-01-14T13:21:52.581Z,34.65
2018-01-14T13:22:55.132Z,38.47
2018-01-14T13:23:57.644Z,36.42
2018-01-14T13:25:00.166Z,32.55
2018-01-14T13:26:02.736Z,37.05
2018-01-14T13:27:05.253Z,35.47
2018-01-14T13:28:07.772Z,33.95
2018-01-14T13:29:10.293Z,33.80
2018-01-14T13:30:12.808Z,34.78
2018-01-14T13:31:15.527Z,35.90